This is the latest recevied weather packets stored in our database for station/object VK4SSH. If no packets are shown the sender has not sent any weather packets the latest 10 day(s).
| Time | Temp. | Humidity | Pressure | Rain* | Wind** | Luminosity | Snow |
|---|---|---|---|---|---|---|---|
| 1777536926 | 18.33° C | 97% | - | 0 mm | - | - | - |
| 1777536326 | 18.33° C | 97% | - | 0 mm | - | - | - |
| 1777535726 | 18.33° C | 97% | - | 0.51 mm | - | - | - |
| 1777535126 | 18.33° C | 97% | - | 0.51 mm | - | - | - |
| 1777534526 | 18.33° C | 97% | - | 0.51 mm | - | - | - |
| 1777533926 | 18.33° C | 97% | - | 0.51 mm | - | - | - |
| 1777533326 | 18.33° C | 96% | - | 0.51 mm | - | - | - |
| 1777532726 | 18.33° C | 96% | - | 0.51 mm | - | - | - |
| 1777532126 | 18.89° C | 96% | - | 0 mm | - | - | - |
| 1777531526 | 18.89° C | 96% | - | 0 mm | - | - | - |
| 1777530926 | 19.44° C | 96% | - | 0 mm | - | - | - |
| 1777530326 | 19.44° C | 96% | - | 0 mm | - | - | - |
| 1777529726 | 19.44° C | 97% | - | 2.03 mm | - | - | - |
| 1777529126 | 19.44° C | 97% | - | 6.1 mm | - | - | - |
| 1777528526 | 19.44° C | 97% | - | 6.1 mm | - | - | - |
| 1777527926 | 19.44° C | 97% | - | 6.1 mm | - | - | - |
| 1777527326 | 18.89° C | 96% | - | 6.1 mm | - | - | - |
| 1777526726 | 19.44° C | 96% | - | 6.1 mm | - | - | - |
| 1777526126 | 21.11° C | 93% | - | 4.06 mm | - | - | - |
| 1777525526 | 22.22° C | 84% | - | 0 mm | - | - | - |
| 1777524926 | 22.78° C | 80% | - | 0 mm | - | - | - |
| 1777524326 | 22.78° C | 77% | - | 0 mm | - | - | - |
| 1777523726 | 22.78° C | 76% | - | 0 mm | - | - | - |
| 1777523126 | 22.22° C | 77% | - | 0 mm | - | - | - |
| 1777522526 | 21.67° C | 78% | - | 0 mm | - | - | - |
* Rain latest hour (hover to see other rain measurements)
** Current wind speed in m/s (hover to see current wind gust speed)